Time;durP1;ratioP1;P1;durP2;ratioP2;P2;SDS_P1;SDS_P2;PMS_P1;PMS_P2;Temp;Humidity;BMP_temperature;BMP_pressure;BME280_temperature;BME280_humidity;BME280_pressure;Samples;Min_cycle;Max_cycle;Signal;HPM_P1;HPM_P2
2023/01/14 00:00:17;;;;;;;27.23;13.93;;;;;;;3.95;100.00;99396.44;5073878;28;20453;-78
2023/01/14 00:02:42;;;;;;;24.17;12.70;;;;;;;3.92;100.00;99390.53;5073955;28;20103;-78
2023/01/14 00:05:08;;;;;;;25.88;14.00;;;;;;;3.90;100.00;99397.44;5073864;28;20023;-78
2023/01/14 00:07:34;;;;;;;25.23;13.25;;;;;;;3.86;100.00;99398.41;5073669;28;20178;-78
2023/01/14 00:09:59;;;;;;;24.00;13.07;;;;;;;3.82;100.00;99405.34;5073402;28;20115;-78
2023/01/14 00:12:24;;;;;;;19.90;11.63;;;;;;;3.79;100.00;99409.72;5073525;28;20012;-78
2023/01/14 00:14:50;;;;;;;17.98;9.93;;;;;;;3.79;100.00;99413.13;5073428;28;20035;-78
2023/01/14 00:17:15;;;;;;;20.33;11.93;;;;;;;3.82;100.00;99422.53;5073383;28;20452;-78
2023/01/14 00:19:40;;;;;;;17.67;10.48;;;;;;;3.72;100.00;99420.19;5073191;28;20025;-78
2023/01/14 00:22:06;;;;;;;16.95;10.43;;;;;;;3.75;100.00;99425.28;5073284;28;20042;-78
2023/01/14 00:24:31;;;;;;;15.25;9.70;;;;;;;3.77;100.00;99427.81;5073472;28;20032;-78
2023/01/14 00:26:57;;;;;;;17.13;10.05;;;;;;;3.74;100.00;99431.28;5073148;28;20028;-78
2023/01/14 00:29:25;;;;;;;14.95;8.40;;;;;;;3.74;100.00;99433.00;5073432;28;20031;-78
2023/01/14 00:31:53;;;;;;;14.93;7.70;;;;;;;3.66;100.00;99424.59;5072909;28;20353;-77
2023/01/14 00:34:18;;;;;;;13.95;7.82;;;;;;;3.69;100.00;99429.69;5073341;28;20024;-78
2023/01/14 00:36:45;;;;;;;14.13;7.13;;;;;;;3.61;100.00;99434.16;5073010;28;20041;-78
2023/01/14 00:39:11;;;;;;;13.57;7.78;;;;;;;3.53;100.00;99423.19;5073095;28;20031;-78
2023/01/14 00:41:36;;;;;;;16.88;9.15;;;;;;;3.56;100.00;99443.72;5073179;28;20024;-78
2023/01/14 00:44:01;;;;;;;17.67;9.88;;;;;;;3.45;100.00;99431.91;5072858;28;20017;-78
2023/01/14 00:46:30;;;;;;;21.00;11.18;;;;;;;3.49;100.00;99441.25;5072976;28;20024;-78
2023/01/14 00:48:58;;;;;;;17.67;11.07;;;;;;;3.38;100.00;99432.09;5072591;28;20078;-78
2023/01/14 00:51:23;;;;;;;16.23;10.18;;;;;;;3.42;100.00;99446.59;5072689;28;20024;-78
2023/01/14 00:53:49;;;;;;;19.23;9.18;;;;;;;3.43;100.00;99459.44;5071414;28;20330;-78
2023/01/14 00:56:16;;;;;;;12.50;8.10;;;;;;;3.41;100.00;99460.31;5072665;28;20046;-77
2023/01/14 00:58:42;;;;;;;16.52;8.38;;;;;;;3.34;100.00;99451.91;5072410;28;20017;-78
2023/01/14 01:01:07;;;;;;;12.65;6.85;;;;;;;3.33;100.00;99457.94;5072966;28;20024;-78
2023/01/14 01:03:37;;;;;;;17.40;7.75;;;;;;;3.34;100.00;99467.34;5072527;28;20016;-78
2023/01/14 01:06:03;;;;;;;19.20;10.48;;;;;;;3.31;100.00;99469.97;5072313;28;20367;-78
2023/01/14 01:08:28;;;;;;;24.23;10.73;;;;;;;3.30;100.00;99477.72;5072686;28;20020;-78
2023/01/14 01:10:54;;;;;;;20.95;12.15;;;;;;;3.28;100.00;99476.91;5072412;28;20434;-78
2023/01/14 01:13:22;;;;;;;20.30;10.20;;;;;;;3.26;100.00;99482.09;5072487;28;20023;-78
2023/01/14 01:15:48;;;;;;;16.88;10.45;;;;;;;3.22;100.00;99478.72;5072245;28;20073;-78
2023/01/14 01:18:13;;;;;;;23.95;12.05;;;;;;;3.15;100.00;99468.56;5072011;28;20420;-78
2023/01/14 01:20:39;;;;;;;20.85;10.40;;;;;;;3.09;100.00;99466.97;5072723;28;20025;-78
2023/01/14 01:23:08;;;;;;;17.05;10.40;;;;;;;3.18;100.00;99481.38;5072286;28;20024;-78
2023/01/14 01:25:34;;;;;;;19.40;10.90;;;;;;;3.12;100.00;99479.78;5072425;28;20022;-78
2023/01/14 01:27:59;;;;;;;23.60;13.35;;;;;;;3.12;100.00;99481.50;5072409;28;20036;-78
2023/01/14 01:30:25;;;;;;;27.58;16.65;;;;;;;3.09;100.00;99473.84;5072189;28;20382;-78
2023/01/14 01:32:52;;;;;;;38.22;17.42;;;;;;;3.25;100.00;99482.97;5071831;28;20527;-78
2023/01/14 01:35:18;;;;;;;25.08;16.02;;;;;;;3.32;100.00;99497.41;5072137;28;20032;-78
2023/01/14 01:37:43;;;;;;;17.02;9.32;;;;;;;3.33;100.00;99493.97;5071923;28;20367;-78
2023/01/14 01:40:10;;;;;;;17.92;10.90;;;;;;;3.31;100.00;99506.00;5071681;28;20436;-78
2023/01/14 01:42:54;;;;;;;19.17;12.40;;;;;;;3.20;100.00;99484.75;5072061;28;20044;-78
2023/01/14 01:45:38;;;;;;;17.90;9.60;;;;;;;3.22;100.00;99499.31;5071983;28;20020;-78
2023/01/14 01:48:14;;;;;;;14.65;8.80;;;;;;;3.19;100.00;99498.53;5071797;28;20020;-78
2023/01/14 01:50:41;;;;;;;18.70;8.82;;;;;;;3.11;100.00;99496.09;5071917;28;20028;-78
2023/01/14 01:53:07;;;;;;;12.63;8.27;;;;;;;3.12;100.00;99504.66;5071863;28;20030;-78
2023/01/14 01:55:36;;;;;;;14.63;8.82;;;;;;;3.10;100.00;99503.84;5071835;28;20032;-78
2023/01/14 01:58:03;;;;;;;15.13;9.13;;;;;;;3.02;100.00;99496.25;5071661;28;20032;-78
2023/01/14 02:00:28;;;;;;;27.42;15.70;;;;;;;3.05;100.00;99513.38;5072204;28;20043;-78
2023/01/14 02:02:58;;;;;;;28.75;15.93;;;;;;;3.03;100.00;99504.81;5071602;28;20020;-78
2023/01/14 02:05:24;;;;;;;27.57;15.47;;;;;;;3.02;100.00;99503.97;5072324;28;20036;-78
2023/01/14 02:07:49;;;;;;;31.75;17.60;;;;;;;2.97;100.00;99505.78;5071553;28;20032;-78
2023/01/14 02:10:16;;;;;;;30.50;18.27;;;;;;;2.92;100.00;99507.59;5071645;28;20028;-78
2023/01/14 02:13:07;;;;;;;26.55;14.85;;;;;;;2.80;100.00;99489.81;5071865;28;20028;-78
2023/01/14 02:15:58;;;;;;;21.10;13.30;;;;;;;2.83;100.00;99500.91;5072051;28;20028;-78
2023/01/14 02:18:44;;;;;;;19.33;12.70;;;;;;;2.77;100.00;99503.56;5071646;28;20029;-78
2023/01/14 02:21:19;;;;;;;18.30;11.82;;;;;;;2.69;100.00;99484.84;5071479;28;20060;-77
2023/01/14 02:24:05;;;;;;;17.10;10.63;;;;;;;2.78;100.00;99512.13;5071565;28;20067;-78
2023/01/14 02:27:01;;;;;;;18.58;11.05;;;;;;;2.75;100.00;99505.34;5071680;28;20470;-78
2023/01/14 02:29:27;;;;;;;16.85;10.13;;;;;;;2.71;100.00;99503.69;5071531;28;20016;-78
2023/01/14 02:32:17;;;;;;;15.43;10.35;;;;;;;2.67;100.00;99505.47;5071260;28;20528;-78
2023/01/14 02:35:01;;;;;;;21.70;11.70;;;;;;;2.67;100.00;99510.59;5071651;28;20035;-78
2023/01/14 02:37:29;;;;;;;19.48;11.75;;;;;;;2.58;100.00;99503.03;5071289;28;20474;-78
2023/01/14 02:40:04;;;;;;;16.52;9.45;;;;;;;2.66;100.00;99521.78;5071142;28;20034;-78
2023/01/14 02:45:51;;;;;;;19.48;8.63;;;;;;;2.65;100.00;99517.47;5069151;28;20032;-78
2023/01/14 02:48:19;;;;;;;17.10;8.30;;;;;;;2.67;100.00;99522.59;5069030;28;20341;-78
2023/01/14 02:50:45;;;;;;;12.73;6.88;;;;;;;2.67;100.00;99518.31;5069135;28;20033;-77
2023/01/14 02:53:15;;;;;;;11.38;6.60;;;;;;;2.66;100.00;99519.19;5072567;28;20494;-78
2023/01/14 02:55:41;;;;;;;12.05;5.90;;;;;;;2.70;100.00;99522.56;5072654;28;20055;-77
2023/01/14 02:58:38;;;;;;;10.15;5.00;;;;;;;2.68;100.00;99521.72;5055505;28;20036;-78
2023/01/14 03:01:15;;;;;;;7.00;4.65;;;;;;;2.77;100.00;99528.44;5072312;28;20036;-78
2023/01/14 03:03:52;;;;;;;8.63;4.43;;;;;;;2.78;100.00;99528.41;5072531;28;20079;-78
2023/01/14 03:06:21;;;;;;;7.20;4.13;;;;;;;2.80;100.00;99538.69;5072642;28;20031;-78
2023/01/14 03:08:55;;;;;;;7.15;4.72;;;;;;;2.73;100.00;99531.06;5072189;28;20123;-78
2023/01/14 03:11:20;;;;;;;9.00;4.07;;;;;;;2.75;100.00;99531.03;5072257;28;20464;-78
2023/01/14 03:13:59;;;;;;;5.28;3.72;;;;;;;2.82;100.00;99548.06;5072443;28;20025;-78
2023/01/14 03:16:29;;;;;;;6.35;3.80;;;;;;;2.75;100.00;99534.47;5072324;28;20029;-78
2023/01/14 03:19:03;;;;;;;4.97;3.75;;;;;;;2.81;100.00;99554.09;5071931;28;20081;-78
2023/01/14 03:21:34;;;;;;;8.35;4.30;;;;;;;2.72;100.00;99547.38;5072351;28;20020;-78
2023/01/14 03:24:29;;;;;;;6.40;4.30;;;;;;;2.79;100.00;99552.44;5074402;28;20024;-78
2023/01/14 03:27:00;;;;;;;11.90;6.75;;;;;;;2.81;100.00;99550.66;5072026;28;20115;-78
2023/01/14 03:29:34;;;;;;;11.52;8.10;;;;;;;2.85;100.00;99560.03;5071870;28;20036;-78
2023/01/14 03:32:09;;;;;;;10.00;6.75;;;;;;;2.86;100.00;99564.28;5071695;28;20028;-78
2023/01/14 03:34:40;;;;;;;10.20;6.72;;;;;;;2.81;100.00;99555.81;5071889;28;20032;-78
2023/01/14 03:37:12;;;;;;;29.73;17.05;;;;;;;2.76;100.00;99558.47;5071426;28;20048;-78
2023/01/14 03:39:40;;;;;;;25.05;15.57;;;;;;;2.80;100.00;99569.56;5071904;28;20028;-78
2023/01/14 03:42:19;;;;;;;17.77;11.45;;;;;;;2.76;100.00;99563.59;5071823;28;20066;-78
2023/01/14 03:44:57;;;;;;;21.25;11.55;;;;;;;2.87;100.00;99574.56;5071810;28;20127;-78
2023/01/14 03:47:24;;;;;;;23.98;14.25;;;;;;;2.92;100.00;99575.34;5071412;28;20072;-78
2023/01/14 03:49:51;;;;;;;31.85;19.73;;;;;;;2.96;100.00;99576.13;5071205;28;20583;-78
2023/01/14 03:52:26;;;;;;;40.08;22.17;;;;;;;2.99;100.00;99570.91;5071510;28;20036;-78
2023/01/14 03:55:01;;;;;;;36.38;22.73;;;;;;;2.97;100.00;99567.53;5071154;28;20017;-78
2023/01/14 03:57:35;;;;;;;38.67;23.45;;;;;;;3.02;100.00;99565.72;5071466;28;20036;-78
2023/01/14 04:00:04;;;;;;;30.35;19.80;;;;;;;3.09;100.00;99572.47;5071421;28;20029;-78
2023/01/14 04:02:31;;;;;;;28.80;18.90;;;;;;;3.04;100.00;99566.56;5070827;28;20025;-78
2023/01/14 04:04:57;;;;;;;28.08;18.25;;;;;;;3.00;100.00;99563.19;5073185;28;20458;-78
2023/01/14 04:07:24;;;;;;;22.20;15.38;;;;;;;3.09;100.00;99581.94;5073872;28;20024;-78
2023/01/14 04:09:50;;;;;;;22.45;14.10;;;;;;;3.05;100.00;99575.13;5073823;28;20021;-78
2023/01/14 04:12:15;;;;;;;18.88;11.80;;;;;;;3.02;100.00;99577.75;5073615;28;20049;-78
2023/01/14 04:17:24;;;;;;;14.18;9.40;;;;;;;3.01;100.00;99594.91;5073379;28;20124;-78
2023/01/14 04:19:50;;;;;;;12.40;8.35;;;;;;;3.02;100.00;99595.75;5073598;28;20103;-78
2023/01/14 04:22:15;;;;;;;11.70;7.32;;;;;;;2.93;100.00;99589.91;5073361;28;20024;-78
2023/01/14 04:24:41;;;;;;;10.18;6.65;;;;;;;2.96;100.00;99599.28;5073512;28;20069;-78
2023/01/14 04:27:06;;;;;;;11.45;6.95;;;;;;;2.91;100.00;99590.81;5073123;28;20464;-78
2023/01/14 04:29:31;;;;;;;10.77;6.53;;;;;;;2.92;100.00;99606.22;5073593;28;20149;-78
2023/01/14 04:31:57;;;;;;;8.65;5.60;;;;;;;2.88;100.00;99604.56;5072838;28;20021;-78
2023/01/14 04:34:22;;;;;;;9.77;6.07;;;;;;;2.84;100.00;99605.47;5073071;28;20062;-78
2023/01/14 04:36:47;;;;;;;8.82;5.60;;;;;;;2.90;100.00;99607.09;5073267;28;20394;-78
2023/01/14 04:39:13;;;;;;;21.00;9.45;;;;;;;3.02;100.00;99614.63;5072742;28;20418;-78
2023/01/14 04:44:22;;;;;;;33.47;23.55;;;;;;;3.09;100.00;99620.53;5072935;28;20507;-78
2023/01/14 04:46:47;;;;;;;59.35;44.50;;;;;;;3.08;100.00;99627.41;5072814;28;20142;-78
2023/01/14 04:49:13;;;;;;;48.15;35.72;;;;;;;3.13;100.00;99633.31;5072881;28;20035;-78
2023/01/14 04:51:38;;;;;;;47.53;34.88;;;;;;;3.08;100.00;99642.00;5071765;28;20053;-78
2023/01/14 04:54:03;;;;;;;48.80;36.08;;;;;;;2.97;100.00;99639.56;5072785;28;20025;-78
2023/01/14 04:56:28;;;;;;;46.70;35.40;;;;;;;2.81;100.00;99626.09;5071627;28;20025;-78
2023/01/14 04:58:54;;;;;;;42.28;32.10;;;;;;;2.78;100.00;99644.13;5072421;28;20532;-78
2023/01/14 05:01:19;;;;;;;35.60;26.60;;;;;;;2.65;100.00;99628.03;5072552;28;20483;-78
2023/01/14 05:03:45;;;;;;;34.08;23.13;;;;;;;2.59;100.00;99640.16;5072759;28;20020;-78
2023/01/14 05:06:10;;;;;;;36.47;22.98;;;;;;;2.44;100.00;99624.09;5072484;28;20025;-78
2023/01/14 05:08:35;;;;;;;32.60;21.17;;;;;;;2.43;100.00;99635.22;5072621;28;20020;-78
2023/01/14 05:11:01;;;;;;;37.25;21.25;;;;;;;2.38;100.00;99633.59;5069508;28;20036;-78
2023/01/14 05:13:26;;;;;;;30.33;17.65;;;;;;;2.37;100.00;99637.03;5069985;28;20032;-78
2023/01/14 05:15:51;;;;;;;23.50;14.40;;;;;;;2.35;100.00;99633.63;5069049;28;20062;-78
2023/01/14 05:18:17;;;;;;;21.15;12.32;;;;;;;2.34;100.00;99640.50;5069701;28;20226;-78
2023/01/14 05:20:44;;;;;;;18.15;9.80;;;;;;;2.33;100.00;99638.81;5069729;28;20158;-78
2023/01/14 05:23:14;;;;;;;12.82;8.70;;;;;;;2.35;100.00;99641.34;5069633;28;20047;-78
2023/01/14 05:25:40;;;;;;;14.13;8.32;;;;;;;2.25;100.00;99636.31;5069873;28;20526;-78
2023/01/14 05:28:08;;;;;;;16.23;7.45;;;;;;;2.28;100.00;99642.31;5069522;28;20103;-78
2023/01/14 05:30:34;;;;;;;20.23;8.00;;;;;;;2.33;100.00;99650.81;5069697;28;20043;-78
2023/01/14 05:33:00;;;;;;;24.40;12.18;;;;;;;2.29;100.00;99652.56;5069665;28;20166;-78
2023/01/14 05:35:25;;;;;;;25.35;13.52;;;;;;;2.22;100.00;99644.06;5069506;28;20086;-78
2023/01/14 05:37:51;;;;;;;53.90;25.48;;;;;;;2.21;100.00;99650.09;5069471;28;20422;-78
2023/01/14 05:40:17;;;;;;;22.58;13.45;;;;;;;2.14;100.00;99640.75;5069274;28;20568;-78
2023/01/14 05:45:38;;;;;;;16.88;12.00;;;;;;;2.18;100.00;99667.25;5072206;28;20079;-78
2023/01/14 05:48:10;;;;;;;22.33;15.27;;;;;;;2.20;100.00;99665.53;5071733;28;20352;-78
2023/01/14 05:50:37;;;;;;;25.92;14.82;;;;;;;2.09;100.00;99654.53;5070622;28;20384;-78
2023/01/14 05:53:03;;;;;;;22.67;14.50;;;;;;;2.10;100.00;99661.34;5071535;28;20107;-78
2023/01/14 05:55:28;;;;;;;23.58;15.15;;;;;;;2.08;100.00;99673.38;5070330;28;20440;-78
2023/01/14 05:57:59;;;;;;;21.52;12.93;;;;;;;2.06;100.00;99667.41;5071968;28;20016;-78
2023/01/14 06:08:44;;;;;;;21.20;13.35;;;;;;;1.86;100.00;99663.34;5071823;28;20040;-78
2023/01/14 06:11:10;;;;;;;20.60;13.38;;;;;;;1.82;100.00;99669.38;5072199;28;20029;-78
2023/01/14 06:13:35;;;;;;;26.83;16.30;;;;;;;1.79;100.00;99673.72;5071796;28;20067;-77
2023/01/14 06:16:06;;;;;;;25.70;16.17;;;;;;;1.78;100.00;99682.28;5071478;28;20372;-78
2023/01/14 06:18:37;;;;;;;27.17;17.15;;;;;;;1.75;100.00;99689.13;5071787;28;20028;-77
2023/01/14 06:21:05;;;;;;;20.45;13.52;;;;;;;1.74;100.00;99687.44;5071505;28;20046;-78
2023/01/14 06:23:30;;;;;;;17.70;11.75;;;;;;;1.71;100.00;99684.06;5071870;28;20135;-78
2023/01/14 06:25:56;;;;;;;20.58;12.70;;;;;;;1.68;100.00;99677.22;5072180;28;20099;-77
2023/01/14 06:28:21;;;;;;;15.48;11.13;;;;;;;1.74;100.00;99696.88;5075259;28;20028;-78
2023/01/14 06:30:48;;;;;;;18.85;11.73;;;;;;;1.70;100.00;99688.34;5075451;28;20093;-78
2023/01/14 06:33:13;;;;;;;16.48;10.40;;;;;;;1.73;100.00;99695.16;5075395;28;20021;-78
2023/01/14 06:35:43;;;;;;;17.17;12.02;;;;;;;1.62;100.00;99679.00;5075502;28;20043;-78
2023/01/14 06:38:10;;;;;;;31.30;19.00;;;;;;;1.69;100.00;99707.19;5075144;28;20033;-77
2023/01/14 06:40:39;;;;;;;47.75;29.85;;;;;;;1.64;100.00;99697.81;5075219;28;20040;-78
2023/01/14 06:43:06;;;;;;;36.70;23.27;;;;;;;1.65;100.00;99704.66;5075062;28;20042;-78
2023/01/14 06:45:32;;;;;;;33.38;21.00;;;;;;;1.62;100.00;99709.81;5075170;28;20103;-78
2023/01/14 06:47:58;;;;;;;33.17;21.02;;;;;;;1.66;100.00;99708.94;5075458;28;20278;-78
2023/01/14 06:50:23;;;;;;;27.75;21.00;;;;;;;1.60;100.00;99704.72;5075218;28;20021;-77
2023/01/14 06:52:48;;;;;;;31.70;20.08;;;;;;;1.54;100.00;99699.63;5075211;28;20512;-77
2023/01/14 06:55:15;;;;;;;25.45;16.42;;;;;;;1.59;100.00;99707.28;5073394;28;20423;-78
2023/01/14 06:57:42;;;;;;;24.08;15.98;;;;;;;1.70;100.00;99720.88;5074848;28;20074;-78
2023/01/14 07:00:08;;;;;;;46.47;22.67;;;;;;;1.66;100.00;99714.06;5074634;28;20031;-78
2023/01/14 07:02:33;;;;;;;132.98;61.50;;;;;;;1.65;100.00;99718.34;5075022;28;20020;-78
2023/01/14 07:04:59;;;;;;;98.65;45.50;;;;;;;1.63;100.00;99708.94;5074916;28;20027;-79
2023/01/14 07:07:24;;;;;;;97.47;45.00;;;;;;;1.70;100.00;99728.56;5073619;28;20135;-78
2023/01/14 07:09:49;;;;;;;59.78;28.30;;;;;;;1.66;100.00;99730.31;5074703;28;20040;-78
2023/01/14 07:12:15;;;;;;;44.97;23.33;;;;;;;1.72;100.00;99724.25;5074761;28;20193;-78
2023/01/14 07:14:40;;;;;;;35.15;17.63;;;;;;;1.81;100.00;99733.59;5074873;28;20031;-78
2023/01/14 07:17:05;;;;;;;32.13;16.23;;;;;;;1.98;100.00;99729.13;5074633;28;20024;-78
2023/01/14 07:19:31;;;;;;;30.70;15.20;;;;;;;2.13;100.00;99733.28;5073415;28;20039;-78
2023/01/14 07:21:56;;;;;;;26.80;11.82;;;;;;;2.17;100.00;99727.22;5073500;28;20020;-78
2023/01/14 07:24:21;;;;;;;28.92;13.90;;;;;;;2.32;100.00;99729.63;5074498;28;20020;-76
2023/01/14 07:26:47;;;;;;;21.85;12.65;;;;;;;2.56;100.00;99719.91;5074365;28;20019;-77
2023/01/14 07:29:14;;;;;;;30.80;18.08;;;;;;;2.87;100.00;99735.78;5074425;28;20359;-78
2023/01/14 07:31:40;;;;;;;24.35;14.45;;;;;;;3.02;100.00;99737.28;5074621;28;20020;-78
2023/01/14 07:34:05;;;;;;;22.48;15.70;;;;;;;3.18;100.00;99736.19;5074288;28;20521;-78
2023/01/14 07:36:30;;;;;;;22.90;17.52;;;;;;;3.35;100.00;99751.34;5074318;28;20530;-78
2023/01/14 07:38:56;;;;;;;24.67;16.05;;;;;;;3.37;100.00;99740.19;5073232;28;20021;-78
2023/01/14 07:41:22;;;;;;;22.35;14.55;;;;;;;3.43;100.00;99744.38;5073960;28;20042;-78
2023/01/14 07:43:48;;;;;;;22.60;13.00;;;;;;;3.51;100.00;99750.25;5074093;28;20020;-78
2023/01/14 07:46:14;;;;;;;22.65;14.85;;;;;;;3.49;100.00;99734.81;5073995;28;20025;-78
2023/01/14 07:48:41;;;;;;;26.80;15.13;;;;;;;3.67;100.00;99746.53;5074286;28;20024;-78
2023/01/14 07:51:08;;;;;;;25.30;15.07;;;;;;;3.82;100.00;99749.72;5073940;28;20024;-78
2023/01/14 07:53:33;;;;;;;17.58;11.48;;;;;;;3.78;100.00;99743.78;5073894;28;20456;-78
2023/01/14 07:56:06;;;;;;;16.58;8.82;;;;;;;3.87;100.00;99756.47;5073905;28;20021;-78
2023/01/14 07:58:33;;;;;;;13.07;7.68;;;;;;;3.87;100.00;99753.06;5074073;28;20019;-78
2023/01/14 08:00:58;;;;;;;16.48;11.13;;;;;;;3.94;100.00;99757.25;5073988;28;20035;-78
2023/01/14 08:03:24;;;;;;;17.25;12.40;;;;;;;4.01;100.00;99761.41;5073586;28;20025;-78
2023/01/14 08:05:50;;;;;;;19.33;12.38;;;;;;;4.02;100.00;99757.94;5073783;28;20067;-78
2023/01/14 08:08:16;;;;;;;16.85;10.23;;;;;;;4.11;100.00;99777.56;5073532;28;20032;-78
2023/01/14 08:10:41;;;;;;;14.93;11.02;;;;;;;4.18;100.00;99772.25;5073570;28;20440;-78
2023/01/14 08:13:11;;;;;;;26.92;15.45;;;;;;;4.18;100.00;99771.41;5073406;28;20356;-78
2023/01/14 08:15:36;;;;;;;29.13;15.60;;;;;;;4.28;100.00;99780.66;5073784;28;20510;-78
2023/01/14 08:18:01;;;;;;;27.00;14.75;;;;;;;4.29;100.00;99778.94;5073359;28;20020;-78
2023/01/14 08:20:27;;;;;;;20.92;13.85;;;;;;;4.31;100.00;99774.59;5073416;28;20024;-78
2023/01/14 08:22:57;;;;;;;20.42;13.02;;;;;;;4.29;100.00;99774.63;5073582;28;20017;-78
2023/01/14 08:25:23;;;;;;;18.20;11.55;;;;;;;4.31;100.00;99785.78;5073205;28;20052;-78
2023/01/14 08:27:48;;;;;;;25.98;13.68;;;;;;;4.36;100.00;99783.09;5073449;28;20103;-78
2023/01/14 08:30:14;;;;;;;36.63;17.52;;;;;;;4.37;100.00;99779.63;5071950;28;20048;-78
2023/01/14 08:32:39;;;;;;;34.00;18.02;;;;;;;4.36;100.00;99770.22;5073456;28;20024;-78
2023/01/14 08:35:05;;;;;;;34.42;16.63;;;;;;;4.40;100.00;99766.69;5073211;28;20074;-78
2023/01/14 08:37:30;;;;;;;33.88;17.00;;;;;;;4.48;100.00;99773.41;5072903;28;20148;-78
2023/01/14 08:39:56;;;;;;;36.85;19.20;;;;;;;4.54;100.00;99762.09;5073324;28;20036;-78
2023/01/14 08:42:21;;;;;;;21.35;11.63;;;;;;;4.72;100.00;99766.06;5073001;28;20059;-78
2023/01/14 08:44:46;;;;;;;23.98;14.73;;;;;;;4.79;100.00;99765.03;5073098;28;20024;-78
2023/01/14 08:47:12;;;;;;;19.50;12.50;;;;;;;4.88;100.00;99771.72;5072819;28;20017;-78
2023/01/14 08:49:37;;;;;;;12.18;9.18;;;;;;;4.80;100.00;99756.38;5072863;28;20020;-78
2023/01/14 08:52:03;;;;;;;16.30;8.60;;;;;;;4.81;100.00;99760.69;5072795;28;20027;-78
2023/01/14 08:54:28;;;;;;;12.77;8.27;;;;;;;4.86;100.00;99769.19;5072296;28;20052;-78
2023/01/14 08:56:55;;;;;;;17.95;9.63;;;;;;;4.91;100.00;99774.25;5072689;28;20030;-78
2023/01/14 08:59:21;;;;;;;20.13;9.88;;;;;;;4.96;100.00;99791.31;5072708;28;20048;-78
2023/01/14 09:01:46;;;;;;;14.18;7.82;;;;;;;4.91;100.00;99779.41;5072653;28;20060;-78
2023/01/14 09:04:11;;;;;;;18.15;8.55;;;;;;;4.93;100.00;99790.53;5072378;28;20077;-78
2023/01/14 09:17:04;;;;;;;15.25;10.07;;;;;;;4.86;100.00;99783.81;5072563;28;20036;-78
2023/01/14 09:17:37;;;;;;;21.35;11.77;;;;;;;4.96;100.00;99795.63;5072331;28;20147;-78
2023/01/14 09:20:08;;;;;;;17.10;11.90;;;;;;;5.01;100.00;99788.63;5072316;28;20103;-77
2023/01/14 09:22:33;;;;;;;15.73;9.75;;;;;;;4.98;100.00;99783.56;5071110;28;20367;-78
2023/01/14 09:24:58;;;;;;;18.95;12.30;;;;;;;4.98;100.00;99793.88;5072381;28;20020;-78
2023/01/14 09:27:25;;;;;;;26.42;17.05;;;;;;;4.97;100.00;99798.19;5072062;28;20063;-78
2023/01/14 09:29:51;;;;;;;21.40;13.52;;;;;;;5.02;100.00;99794.66;5072088;28;20027;-78
2023/01/14 09:32:17;;;;;;;24.65;15.40;;;;;;;5.17;100.00;99802.06;5072220;28;20016;-78
2023/01/14 09:34:47;;;;;;;28.50;15.30;;;;;;;5.26;100.00;99794.09;5072548;28;20367;-78
2023/01/14 09:37:14;;;;;;;24.10;14.00;;;;;;;5.34;100.00;99781.88;5071857;28;20444;-78
2023/01/14 09:39:39;;;;;;;18.35;10.43;;;;;;;5.43;100.00;99775.63;5072101;28;20105;-78
2023/01/14 09:42:12;;;;;;;18.20;10.63;;;;;;;5.39;100.00;99780.03;5070839;28;20048;-78
2023/01/14 09:44:41;;;;;;;16.45;12.38;;;;;;;5.23;100.00;99764.06;5072005;28;20099;-78
2023/01/14 09:47:12;;;;;;;20.25;11.82;;;;;;;5.26;100.00;99788.94;5072241;28;20047;-78
2023/01/14 09:49:39;;;;;;;;;;;;;;;5.45;100.00;99787.63;5072700;28;20024;-78
2023/01/14 09:52:30;;;;;;;35.47;16.17;;;;;;;5.64;100.00;99782.88;5072084;28;19912;-78
2023/01/14 09:54:58;;;;;;;;;;;;;;;5.74;100.00;99778.34;5072192;28;20033;-78
2023/01/14 09:57:46;;;;;;;36.28;15.45;;;;;;;5.83;100.00;99765.19;5071717;28;19912;-78
2023/01/14 10:00:26;;;;;;;29.88;14.13;;;;;;;6.15;100.00;99771.28;5071554;28;20020;-78
2023/01/14 10:03:17;;;;;;;37.58;15.13;;;;;;;6.35;100.00;99773.31;5071470;28;20452;-78
2023/01/14 10:05:51;;;;;;;24.20;11.23;;;;;;;6.44;100.00;99771.31;5072082;28;20025;-78
2023/01/14 10:08:19;;;;;;;21.98;10.73;;;;;;;6.42;100.00;99772.28;5071589;28;20028;-78
2023/01/14 10:10:46;;;;;;;26.02;10.50;;;;;;;6.35;100.00;99766.41;5071600;28;20512;-78
2023/01/14 10:13:18;;;;;;;21.95;10.13;;;;;;;6.31;100.00;99767.38;5071495;28;20025;-78
2023/01/14 10:15:55;;;;;;;22.58;13.02;;;;;;;6.30;100.00;99759.69;5057589;28;20028;-78
2023/01/14 10:18:32;;;;;;;19.73;11.02;;;;;;;6.34;100.00;99756.97;5050936;28;20372;-78
2023/01/14 10:21:00;;;;;;;13.60;8.55;;;;;;;6.39;100.00;99762.84;5060959;28;20035;-77
2023/01/14 10:23:28;;;;;;;11.40;7.40;;;;;;;6.36;100.00;99756.91;5071751;28;20103;-78
2023/01/14 10:25:57;;;;;;;39.92;33.17;;;;;;;6.37;100.00;99736.19;5071535;28;20020;-78
2023/01/14 10:28:28;;;;;;;19.52;13.00;;;;;;;6.41;100.00;99750.75;5071208;28;20555;-77
2023/01/14 10:30:54;;;;;;;13.18;7.70;;;;;;;6.45;100.00;99748.91;5071689;28;20021;-78
2023/01/14 10:33:22;;;;;;;12.35;7.20;;;;;;;6.49;100.00;99732.41;5064425;28;20104;-78
2023/01/14 10:35:59;;;;;;;12.30;7.03;;;;;;;6.54;100.00;99735.72;5059505;28;20045;-78
2023/01/14 10:38:26;;;;;;;11.25;7.65;;;;;;;6.60;100.00;99726.91;5059026;28;20063;-78
2023/01/14 10:40:55;;;;;;;25.90;17.00;;;;;;;6.55;100.00;99715.84;5059918;28;20032;-78
2023/01/14 10:43:44;;;;;;;31.05;19.33;;;;;;;6.69;100.00;99724.06;5060235;28;20528;-78
2023/01/14 10:46:21;;;;;;;33.88;19.75;;;;;;;6.74;99.79;99724.75;5053195;28;20431;-77
2023/01/14 10:48:57;;;;;;;28.38;17.10;;;;;;;6.85;99.75;99722.69;5048911;28;20044;-77
2023/01/14 10:51:35;;;;;;;14.70;7.22;;;;;;;6.96;98.92;99725.81;5048714;28;20072;-78
2023/01/14 10:54:21;;;;;;;25.55;15.90;;;;;;;7.04;98.39;99728.19;5048726;28;20508;-78
2023/01/14 10:56:51;;;;;;;35.50;19.45;;;;;;;7.23;97.82;99724.09;5049105;28;20041;-78
2023/01/14 10:59:44;;;;;;;18.77;10.07;;;;;;;7.33;97.04;99709.13;5048756;28;20349;-78
2023/01/14 11:02:21;;;;;;;29.38;16.63;;;;;;;7.60;95.45;99711.72;5049012;28;20029;-78
2023/01/14 11:04:47;;;;;;;26.15;15.38;;;;;;;7.88;94.76;99715.06;5048897;28;20033;-78
2023/01/14 11:07:30;;;;;;;27.48;14.27;;;;;;;7.90;93.36;99702.03;5048818;28;20372;-78
2023/01/14 11:09:58;;;;;;;43.47;22.08;;;;;;;7.98;93.35;99708.66;5031903;28;20029;-78
2023/01/14 11:12:28;;;;;;;53.67;30.83;;;;;;;8.03;93.16;99698.09;5048405;28;20037;-78
2023/01/14 11:14:54;;;;;;;27.85;17.00;;;;;;;8.04;92.54;99693.75;5052171;28;20029;-78
2023/01/14 11:17:38;;;;;;;16.08;9.93;;;;;;;8.04;92.34;99689.41;5051953;28;20032;-78
2023/01/14 11:20:25;;;;;;;9.65;6.40;;;;;;;8.08;91.53;99703.97;5052173;28;20460;-76
2023/01/14 11:22:56;;;;;;;13.15;8.27;;;;;;;8.02;90.98;99686.03;5052936;28;20064;-76
2023/01/14 11:25:22;;;;;;;;;;;;;;;8.05;90.15;99692.84;5054908;28;20028;-76
2023/01/14 11:27:49;;;;;;;12.35;5.75;;;;;;;7.96;88.92;99689.72;5054478;28;19905;-79
2023/01/14 11:30:17;;;;;;;13.98;7.35;;;;;;;7.92;88.39;99679.47;5054238;28;20487;-76
2023/01/14 11:32:50;;;;;;;16.45;7.80;;;;;;;7.96;88.54;99691.44;5054281;28;20021;-76
2023/01/14 11:35:20;;;;;;;13.82;7.90;;;;;;;7.92;88.71;99693.31;5069827;28;20028;-76
2023/01/14 11:37:49;;;;;;;12.93;6.55;;;;;;;7.84;89.01;99676.34;5074223;28;20016;-76
2023/01/14 11:41:28;;;;;;;12.75;6.28;;;;;;;7.85;89.02;99689.22;5074132;28;20024;-76
2023/01/14 11:43:14;;;;;;;11.88;6.25;;;;;;;7.75;88.90;99670.56;5074012;28;20044;-76
2023/01/14 11:45:40;;;;;;;13.95;7.20;;;;;;;7.71;89.16;99658.59;5074280;28;20023;-76
2023/01/14 11:48:26;;;;;;;13.18;6.57;;;;;;;7.72;89.18;99659.44;5074020;28;20029;-76
2023/01/14 11:50:58;;;;;;;16.35;7.63;;;;;;;7.80;89.35;99659.19;5074021;28;20024;-76
2023/01/14 11:53:26;;;;;;;11.25;7.05;;;;;;;7.72;89.40;99660.28;5071256;28;20380;-77
2023/01/14 11:55:56;;;;;;;11.40;6.72;;;;;;;7.75;89.47;99664.50;5072520;28;20044;-77
2023/01/14 11:58:25;;;;;;;12.23;7.13;;;;;;;7.79;89.48;99660.91;5073761;28;20031;-76